Time;durP1;ratioP1;P1;durP2;ratioP2;P2;SDS_P1;SDS_P2;PMS_P1;PMS_P2;Temp;Humidity;BMP_temperature;BMP_pressure;BME280_temperature;BME280_humidity;BME280_pressure;Samples;Min_cycle;Max_cycle;Signal;HPM_P1;HPM_P2
2022/11/05 00:10:13;;;;;;;8.35;3.63;;;;;;;11.82;99.84;93482.59;4997492;28;20144;-88
2022/11/05 00:18:06;;;;;;;7.57;4.18;;;;;;;11.65;100.00;93491.88;4982888;28;20036;-88
2022/11/05 00:20:32;;;;;;;7.38;4.15;;;;;;;11.62;100.00;93489.06;4980153;28;20022;-88
2022/11/05 00:25:56;;;;;;;6.70;3.45;;;;;;;11.64;100.00;93479.84;4982738;28;20085;-87
2022/11/05 00:28:22;;;;;;;7.25;3.47;;;;;;;11.55;100.00;93474.50;4980214;28;20022;-88
2022/11/05 00:30:47;;;;;;;7.70;4.20;;;;;;;11.49;100.00;93482.78;4979578;28;20042;-88
2022/11/05 00:33:13;;;;;;;8.00;3.70;;;;;;;11.30;100.00;93494.16;4979962;28;20030;-88
2022/11/05 00:35:39;;;;;;;7.82;3.45;;;;;;;11.31;100.00;93504.34;4980169;28;20041;-88
2022/11/05 00:38:04;;;;;;;7.63;4.28;;;;;;;11.26;100.00;93509.72;4979934;28;20038;-88
2022/11/05 00:40:30;;;;;;;6.45;3.88;;;;;;;11.16;100.00;93509.91;4979687;28;20048;-88
2022/11/05 00:45:39;;;;;;;6.63;3.92;;;;;;;10.85;100.00;93518.31;4986772;28;20033;-87
2022/11/05 00:50:50;;;;;;;9.50;3.88;;;;;;;11.01;100.00;93524.84;4986591;28;20092;-88
2022/11/05 00:53:15;;;;;;;7.82;4.13;;;;;;;10.77;100.00;93527.63;4983524;28;20022;-88
2022/11/05 00:55:43;;;;;;;8.88;3.88;;;;;;;10.82;100.00;93521.50;4983470;28;20379;-88
2022/11/05 00:58:19;;;;;;;7.40;3.95;;;;;;;10.99;100.00;93521.72;4983626;28;20026;-87
2022/11/05 01:00:52;;;;;;;10.48;4.72;;;;;;;10.97;100.00;93517.84;4983747;28;20029;-88
2022/11/05 01:03:19;;;;;;;;;;;;;;;10.80;100.00;93518.41;4984016;28;20121;-88
2022/11/05 01:05:49;;;;;;;8.05;4.07;;;;;;;10.60;100.00;93520.31;4983724;28;19909;-88
2022/11/05 01:08:16;;;;;;;9.73;4.63;;;;;;;10.64;100.00;93525.75;4967753;28;20125;-88
2022/11/05 01:10:54;;;;;;;7.45;4.30;;;;;;;10.76;100.00;93526.06;4983249;28;20052;-87
2022/11/05 01:13:21;;;;;;;9.57;4.57;;;;;;;10.78;100.00;93537.03;4967390;28;20023;-87
2022/11/05 01:15:49;;;;;;;8.20;4.82;;;;;;;10.75;100.00;93527.91;4967135;28;20085;-88
2022/11/05 01:18:16;;;;;;;5.72;4.00;;;;;;;10.71;100.00;93520.91;4983768;28;20022;-87
2022/11/05 01:20:42;;;;;;;15.23;4.70;;;;;;;10.82;100.00;93524.91;4951351;28;20096;-87
2022/11/05 01:23:07;;;;;;;7.88;4.70;;;;;;;10.81;100.00;93531.22;4983258;28;20069;-88
2022/11/05 01:25:35;;;;;;;11.15;4.85;;;;;;;10.72;100.00;93535.56;4967154;28;20124;-88
2022/11/05 01:28:01;;;;;;;10.85;4.45;;;;;;;11.01;100.00;93547.63;4967369;28;20046;-89
2022/11/05 01:30:28;;;;;;;10.57;4.38;;;;;;;10.96;100.00;93534.63;4967240;28;20030;-88
2022/11/05 01:32:53;;;;;;;6.38;3.95;;;;;;;10.98;100.00;93548.22;4983170;28;20066;-88
2022/11/05 01:35:19;;;;;;;8.27;4.10;;;;;;;10.97;100.00;93547.44;4983207;28;20064;-88
2022/11/05 01:37:44;;;;;;;13.40;4.70;;;;;;;10.95;100.00;93546.94;4983062;28;20487;-88
2022/11/05 01:40:20;;;;;;;9.73;4.72;;;;;;;11.09;100.00;93533.09;4983278;28;20041;-88
2022/11/05 01:42:47;;;;;;;8.43;4.63;;;;;;;11.11;100.00;93542.22;5000363;28;20050;-88
2022/11/05 01:45:20;;;;;;;6.75;3.85;;;;;;;11.35;100.00;93546.50;4966778;28;20062;-88
2022/11/05 01:48:09;;;;;;;10.02;4.68;;;;;;;11.26;100.00;93540.38;4966917;28;20077;-88
2022/11/05 01:50:56;;;;;;;13.80;4.90;;;;;;;11.39;100.00;93547.47;4967012;28;20033;-88
2022/11/05 01:53:33;;;;;;;8.63;4.40;;;;;;;11.56;100.00;93551.34;4982804;28;20427;-88
2022/11/05 01:56:15;;;;;;;10.15;4.63;;;;;;;11.51;100.00;93544.34;4999911;28;20089;-88
2022/11/05 01:58:51;;;;;;;10.00;4.40;;;;;;;11.66;100.00;93545.91;5000175;28;20141;-88
2022/11/05 02:01:17;;;;;;;8.75;4.28;;;;;;;11.47;100.00;93543.38;4966520;28;20026;-88
2022/11/05 02:03:44;;;;;;;7.18;3.75;;;;;;;11.79;100.00;93544.31;4966975;28;20030;-88
2022/11/05 02:06:10;;;;;;;9.60;4.15;;;;;;;11.28;100.00;93541.66;4982631;28;20066;-87
2022/11/05 02:08:50;;;;;;;10.70;4.60;;;;;;;11.44;100.00;93542.13;4965944;28;20113;-87
2022/11/05 02:11:17;;;;;;;7.60;4.85;;;;;;;11.57;100.00;93537.16;4999361;28;20165;-87
2022/11/05 02:13:46;;;;;;;7.78;4.70;;;;;;;11.58;100.00;93547.38;4966378;28;20021;-88
2022/11/05 02:16:40;;;;;;;9.82;4.85;;;;;;;11.71;100.00;93537.91;4982673;28;20420;-87
2022/11/05 02:19:24;;;;;;;9.07;4.15;;;;;;;11.91;100.00;93537.78;4979001;28;20085;-89
2022/11/05 02:22:02;;;;;;;9.52;4.93;;;;;;;11.93;100.00;93535.63;4982106;28;20030;-89
2022/11/05 02:24:53;;;;;;;7.93;4.68;;;;;;;11.86;100.00;93536.03;4982433;28;20030;-88
2022/11/05 02:27:39;;;;;;;10.63;4.88;;;;;;;12.09;100.00;93549.25;4988664;28;20046;-88
2022/11/05 02:30:46;;;;;;;7.95;4.43;;;;;;;11.99;100.00;93556.22;4981419;28;20041;-89
2022/11/05 02:33:55;;;;;;;9.27;5.05;;;;;;;11.84;100.00;93544.22;4936126;28;20089;-88
2022/11/05 02:36:31;;;;;;;10.90;5.70;;;;;;;11.78;100.00;93552.50;4940610;28;20351;-88
2022/11/05 02:39:01;;;;;;;16.52;6.13;;;;;;;11.55;100.00;93555.84;4982076;28;20030;-89
2022/11/05 02:41:42;;;;;;;11.75;5.38;;;;;;;11.64;100.00;93547.25;4981816;28;20073;-88
2022/11/05 02:44:38;;;;;;;8.77;5.13;;;;;;;11.95;100.00;93549.25;4981853;28;20023;-88
2022/11/05 02:47:11;;;;;;;8.45;5.10;;;;;;;11.96;100.00;93556.03;4982144;28;20032;-88
2022/11/05 02:50:04;;;;;;;10.38;6.03;;;;;;;11.52;100.00;93548.53;4981860;28;20332;-88
2022/11/05 02:52:50;;;;;;;11.40;5.63;;;;;;;11.69;100.00;93558.44;4981617;28;20503;-88
2022/11/05 02:55:30;;;;;;;10.00;6.10;;;;;;;11.52;100.00;93571.38;4998779;28;20026;-89
2022/11/05 02:57:58;;;;;;;11.45;6.45;;;;;;;11.34;100.00;93573.81;4998782;28;20030;-88
2022/11/05 03:00:38;;;;;;;18.88;6.32;;;;;;;11.87;100.00;93577.75;4981967;28;20034;-87
2022/11/05 03:03:17;;;;;;;11.02;6.32;;;;;;;11.77;100.00;93588.44;4998528;28;20113;-88
2022/11/05 03:05:49;;;;;;;11.18;6.53;;;;;;;11.62;100.00;93589.53;4964578;28;20343;-88
2022/11/05 03:08:31;;;;;;;11.05;6.40;;;;;;;12.18;100.00;93597.34;4998506;28;20022;-88
2022/11/05 03:11:01;;;;;;;11.73;6.55;;;;;;;12.06;100.00;93592.63;4981615;28;20098;-88
2022/11/05 03:13:59;;;;;;;13.35;7.25;;;;;;;12.28;100.00;93594.50;4981178;28;20029;-88
2022/11/05 03:17:02;;;;;;;15.15;7.30;;;;;;;12.16;100.00;93591.63;4998380;28;20026;-88
2022/11/05 03:19:46;;;;;;;14.52;8.05;;;;;;;12.08;100.00;93605.47;4998598;28;20026;-88
2022/11/05 03:22:24;;;;;;;13.02;7.30;;;;;;;12.34;100.00;93608.31;4998159;28;20032;-88
2022/11/05 03:25:11;;;;;;;14.13;7.50;;;;;;;12.24;100.00;93605.88;4981044;28;20448;-88
2022/11/05 03:27:39;;;;;;;13.95;7.78;;;;;;;12.03;100.00;93611.59;4980663;28;20041;-88
2022/11/05 03:30:07;;;;;;;15.13;7.93;;;;;;;11.60;100.00;93610.03;4965089;28;20026;-88
2022/11/05 03:32:37;;;;;;;15.18;7.72;;;;;;;11.43;100.00;93619.25;4980922;28;20026;-89
2022/11/05 03:35:22;;;;;;;13.68;7.40;;;;;;;11.42;100.00;93622.19;4981268;28;20069;-87
2022/11/05 03:38:02;;;;;;;15.05;7.90;;;;;;;11.63;100.00;93627.84;4980935;28;20022;-88
2022/11/05 03:40:31;;;;;;;19.77;8.25;;;;;;;11.73;100.00;93626.84;4981890;28;20022;-88
2022/11/05 03:42:57;;;;;;;12.63;8.80;;;;;;;11.48;100.00;93641.19;4998149;28;20452;-88
2022/11/05 03:45:27;;;;;;;14.70;8.70;;;;;;;11.78;100.00;93637.25;4998282;28;20105;-88
2022/11/05 03:47:56;;;;;;;18.67;9.05;;;;;;;12.00;100.00;93646.28;4965156;28;20335;-88
2022/11/05 03:50:59;;;;;;;15.07;8.48;;;;;;;11.56;100.00;93651.03;4949183;28;20026;-88
2022/11/05 03:53:27;;;;;;;14.05;9.10;;;;;;;11.78;100.00;93647.75;4997656;28;20049;-88
2022/11/05 03:56:05;;;;;;;16.38;9.13;;;;;;;11.82;100.00;93645.31;4980572;28;20029;-89
2022/11/05 03:58:31;;;;;;;18.77;9.85;;;;;;;11.67;100.00;93652.41;4980380;28;20038;-89
2022/11/05 04:01:01;;;;;;;14.43;8.70;;;;;;;11.98;100.00;93648.44;4980378;28;20026;-88
2022/11/05 04:03:27;;;;;;;15.45;9.10;;;;;;;11.79;100.00;93651.16;4980486;28;20347;-88
2022/11/05 04:14:08;;;;;;;19.63;8.82;;;;;;;11.39;100.00;93660.25;4997756;28;20497;-88
2022/11/05 04:24:06;;;;;;;17.40;9.98;;;;;;;11.74;100.00;93676.41;4982904;28;20030;-88
2022/11/05 04:24:49;;;;;;;16.23;9.50;;;;;;;11.69;100.00;93686.22;4997368;28;20093;-88
2022/11/05 04:27:15;;;;;;;15.85;9.32;;;;;;;11.46;100.00;93676.38;4997508;28;20366;-88
2022/11/05 04:32:25;;;;;;;19.77;10.40;;;;;;;11.42;100.00;93683.28;4997432;28;20139;-88
2022/11/05 04:34:50;;;;;;;17.40;10.95;;;;;;;11.38;100.00;93678.88;4979981;28;20038;-88
2022/11/05 04:37:16;;;;;;;17.88;10.32;;;;;;;11.58;100.00;93683.78;4979985;28;20030;-88
2022/11/05 04:39:42;;;;;;;19.60;10.43;;;;;;;11.08;100.00;93688.81;4980023;28;20082;-88
2022/11/05 04:42:08;;;;;;;19.63;10.32;;;;;;;11.24;100.00;93692.75;4996915;28;20030;-88
2022/11/05 04:44:33;;;;;;;18.35;9.77;;;;;;;11.39;100.00;93696.19;4979993;28;20022;-88
2022/11/05 04:46:58;;;;;;;18.27;10.43;;;;;;;11.44;100.00;93702.13;4979945;28;20030;-88
2022/11/05 04:49:24;;;;;;;19.80;10.25;;;;;;;11.31;100.00;93703.66;4997282;28;20026;-88
2022/11/05 04:51:50;;;;;;;19.60;11.32;;;;;;;11.36;100.00;93699.38;4979597;28;20042;-88
2022/11/05 04:54:15;;;;;;;19.95;10.88;;;;;;;11.48;100.00;93701.53;4963802;28;20037;-88
2022/11/05 04:56:41;;;;;;;17.38;10.30;;;;;;;11.09;100.00;93698.22;4963761;28;20066;-88
2022/11/05 04:59:06;;;;;;;18.70;10.73;;;;;;;11.37;100.00;93698.31;4979790;28;20030;-88
2022/11/05 05:01:32;;;;;;;19.13;10.10;;;;;;;11.22;100.00;93704.59;4979680;28;20041;-88
2022/11/05 05:03:57;;;;;;;19.08;10.38;;;;;;;11.53;100.00;93709.34;4963933;28;20034;-88
2022/11/05 05:06:25;;;;;;;18.10;10.70;;;;;;;11.50;100.00;93710.69;4963631;28;20034;-88
2022/11/05 05:09:09;;;;;;;17.95;10.50;;;;;;;11.73;100.00;93705.56;4964116;28;20041;-88
2022/11/05 05:11:34;;;;;;;20.70;10.68;;;;;;;11.31;100.00;93708.09;4963418;28;20033;-88
2022/11/05 05:14:07;;;;;;;17.58;10.02;;;;;;;11.57;100.00;93705.84;4978933;28;20034;-89
2022/11/05 05:16:32;;;;;;;22.95;11.90;;;;;;;11.44;100.00;93704.75;4997071;28;20418;-88
2022/11/05 05:19:03;;;;;;;23.65;10.77;;;;;;;11.45;100.00;93710.78;4961442;28;20130;-89
2022/11/05 05:21:38;;;;;;;20.73;11.02;;;;;;;11.45;100.00;93705.53;4979214;28;20041;-88
2022/11/05 05:24:07;;;;;;;21.80;10.75;;;;;;;11.43;100.00;93713.69;4964798;28;20026;-88
2022/11/05 05:26:33;;;;;;;21.67;11.65;;;;;;;11.14;100.00;93706.81;4963844;28;20042;-88
2022/11/05 05:28:58;;;;;;;21.55;11.80;;;;;;;11.16;100.00;93717.00;4979926;28;20427;-88
2022/11/05 05:31:25;;;;;;;23.65;11.90;;;;;;;11.50;100.00;93718.56;4967120;28;20054;-88
2022/11/05 05:33:56;;;;;;;18.85;10.57;;;;;;;11.43;100.00;93711.06;4975124;28;20472;-88
2022/11/05 05:36:22;;;;;;;18.88;10.60;;;;;;;11.42;100.00;93706.88;4963705;28;20038;-88
2022/11/05 05:38:48;;;;;;;19.50;10.77;;;;;;;11.68;100.00;93711.69;4969044;28;20037;-88
2022/11/05 05:41:13;;;;;;;22.23;11.00;;;;;;;11.80;100.00;93715.69;4966936;28;20030;-88
2022/11/05 05:43:41;;;;;;;15.48;9.50;;;;;;;11.53;100.00;93719.81;4965459;28;20487;-89
2022/11/05 05:46:12;;;;;;;15.68;9.65;;;;;;;11.71;100.00;93712.97;4962563;28;20034;-89
2022/11/05 05:48:38;;;;;;;17.40;10.13;;;;;;;11.82;100.00;93719.56;4964133;28;20035;-89
2022/11/05 05:51:06;;;;;;;17.13;9.75;;;;;;;11.94;100.00;93726.19;4963370;28;20031;-89
2022/11/05 05:53:32;;;;;;;15.70;9.75;;;;;;;11.66;100.00;93737.44;4963465;28;20027;-88
2022/11/05 05:56:01;;;;;;;16.33;9.48;;;;;;;11.53;100.00;93730.31;4947476;28;20467;-88
2022/11/05 05:58:34;;;;;;;16.83;9.95;;;;;;;11.52;100.00;93737.41;4980405;28;20428;-88
2022/11/05 06:01:12;;;;;;;17.83;9.10;;;;;;;11.39;100.00;93732.91;4963243;28;20031;-88
2022/11/05 06:03:37;;;;;;;19.92;10.07;;;;;;;11.50;100.00;93733.53;4948302;28;20030;-88
2022/11/05 06:06:13;;;;;;;15.57;8.65;;;;;;;11.40;100.00;93745.72;4975072;28;20036;-87
2022/11/05 06:08:55;;;;;;;17.65;9.77;;;;;;;11.14;100.00;93754.00;4986737;28;20034;-88
2022/11/05 06:11:24;;;;;;;15.02;8.50;;;;;;;11.76;100.00;93756.69;4965489;28;20041;-88
2022/11/05 06:13:49;;;;;;;17.25;8.98;;;;;;;11.89;100.00;93761.19;4963596;28;20037;-88
2022/11/05 06:16:15;;;;;;;14.70;8.82;;;;;;;11.15;100.00;93752.16;4947280;28;20478;-88
2022/11/05 06:18:44;;;;;;;19.40;8.88;;;;;;;11.48;100.00;93762.66;4962648;28;20038;-88
2022/11/05 06:21:21;;;;;;;13.27;8.15;;;;;;;11.64;100.00;93767.66;4947891;28;20045;-89
2022/11/05 06:23:50;;;;;;;17.83;9.27;;;;;;;11.26;100.00;93771.94;4963970;28;20038;-88
2022/11/05 06:26:32;;;;;;;13.93;7.90;;;;;;;11.49;100.00;93784.44;4978787;28;20045;-88
2022/11/05 06:29:00;;;;;;;13.65;7.43;;;;;;;11.98;100.00;93782.31;4964269;28;20034;-89
2022/11/05 06:31:29;;;;;;;14.40;8.40;;;;;;;11.86;100.00;93788.00;4963227;28;20030;-89
2022/11/05 06:33:54;;;;;;;12.38;7.35;;;;;;;11.82;100.00;93787.81;4963163;28;20081;-89
2022/11/05 06:36:20;;;;;;;10.65;6.70;;;;;;;12.05;100.00;93793.22;4963065;28;20038;-89
2022/11/05 06:38:57;;;;;;;;;;;;;;;;;;;;;
2022/11/05 06:41:30;;;;;;;12.07;7.18;;;;;;;12.11;100.00;93805.19;4973052;28;20109;-96
2022/11/05 06:44:28;;;;;;;;;;;;;;;;;;;;;
2022/11/05 06:47:04;;;;;;;14.73;6.63;;;;;;;11.90;100.00;93824.97;4986836;28;20118;-96
2022/11/05 06:49:49;;;;;;;;;;;;;;;;;;;;;
2022/11/05 06:52:16;;;;;;;12.20;6.07;;;;;;;12.25;100.00;93831.47;4971456;28;20547;-95
2022/11/05 06:54:44;;;;;;;13.75;5.63;;;;;;;12.04;100.00;93835.50;4970421;28;20030;-96
2022/11/05 06:57:11;;;;;;;10.30;5.47;;;;;;;11.85;100.00;93837.13;4965299;28;20034;-95
2022/11/05 06:59:37;;;;;;;8.00;4.85;;;;;;;12.52;100.00;93850.16;4946876;28;20084;-94
2022/11/05 07:02:03;;;;;;;8.27;4.85;;;;;;;12.04;100.00;93846.81;4946262;28;20027;-89
2022/11/05 07:04:30;;;;;;;14.15;5.25;;;;;;;12.06;100.00;93844.66;4962503;28;20061;-89
2022/11/05 07:06:58;;;;;;;9.30;5.20;;;;;;;12.07;100.00;93845.47;4979518;28;20034;-90
2022/11/05 07:09:23;;;;;;;8.30;4.50;;;;;;;11.74;100.00;93851.47;4948555;28;20459;-89
2022/11/05 07:11:49;;;;;;;7.97;4.80;;;;;;;12.12;100.00;93861.13;4981577;28;20065;-90
2022/11/05 07:14:14;;;;;;;12.05;4.85;;;;;;;12.39;100.00;93868.25;4981640;28;20026;-94
2022/11/05 07:16:40;;;;;;;11.10;4.28;;;;;;;12.63;98.60;93869.94;4965535;28;20042;-94
2022/11/05 07:19:05;;;;;;;7.60;4.55;;;;;;;12.62;97.84;93880.72;4965335;28;20359;-93
2022/11/05 07:21:30;;;;;;;6.88;3.72;;;;;;;12.40;96.57;93882.19;4981273;28;20084;-93
2022/11/05 07:23:56;;;;;;;6.60;4.10;;;;;;;12.16;94.34;93883.88;4981037;28;20427;-93
2022/11/05 07:26:21;;;;;;;9.68;3.55;;;;;;;12.55;89.47;93887.16;4964917;28;20100;-94
2022/11/05 07:28:47;;;;;;;5.13;3.00;;;;;;;12.30;88.65;93881.28;4981098;28;20077;-92
2022/11/05 07:31:12;;;;;;;4.82;3.03;;;;;;;12.14;89.59;93893.91;4998425;28;20034;-93
2022/11/05 07:33:38;;;;;;;4.35;2.78;;;;;;;12.11;90.89;93893.69;4998249;28;20060;-93
2022/11/05 07:36:04;;;;;;;3.63;2.33;;;;;;;12.41;87.25;93907.38;4998522;28;20034;-94
2022/11/05 07:38:29;;;;;;;4.65;2.60;;;;;;;12.25;81.81;93904.22;4998705;28;20363;-94
2022/11/05 07:40:54;;;;;;;4.07;2.47;;;;;;;12.54;81.30;93906.63;4998162;28;20041;-93
2022/11/05 07:43:20;;;;;;;4.72;2.60;;;;;;;12.25;82.62;93915.53;4980659;28;20046;-94
2022/11/05 07:45:46;;;;;;;4.80;2.50;;;;;;;12.94;80.23;93914.03;4998785;28;20034;-95
2022/11/05 07:48:12;;;;;;;5.05;2.85;;;;;;;13.33;77.52;93914.56;4998188;28;20030;-94
2022/11/05 07:50:37;;;;;;;4.47;2.63;;;;;;;13.14;73.75;93919.97;4998277;28;20037;-94
2022/11/05 07:53:09;;;;;;;4.65;2.80;;;;;;;13.07;77.01;93928.25;4997896;28;20031;-94
2022/11/05 07:55:34;;;;;;;4.28;2.70;;;;;;;12.51;80.47;93925.59;4998141;28;20073;-94
2022/11/05 07:58:00;;;;;;;6.80;2.83;;;;;;;12.73;79.91;93924.16;4998089;28;20053;-94
2022/11/05 08:00:27;;;;;;;3.92;2.47;;;;;;;13.09;77.07;93922.69;4998273;28;20026;-93
2022/11/05 08:03:00;;;;;;;3.90;2.38;;;;;;;13.29;76.00;93929.38;4997797;28;20030;-94
2022/11/05 08:05:26;;;;;;;;;;;;;;;13.10;76.76;93938.19;4998327;28;20030;-94
2022/11/05 08:07:55;;;;;;;5.43;2.03;;;;;;;13.22;74.48;93935.03;4998464;28;20004;-94
2022/11/05 08:10:24;;;;;;;6.93;2.67;;;;;;;12.91;76.02;93933.03;4982060;28;20066;-94
2022/11/05 08:12:54;;;;;;;3.42;2.00;;;;;;;13.09;73.06;93943.72;4965293;28;20120;-94
2022/11/05 08:15:20;;;;;;;4.90;1.75;;;;;;;13.13;73.24;93948.09;4964945;28;20088;-94
2022/11/05 08:17:45;;;;;;;4.00;1.88;;;;;;;13.42;69.57;93949.63;4964797;28;20034;-94
2022/11/05 08:20:12;;;;;;;2.50;1.67;;;;;;;13.37;69.34;93952.38;4964712;28;20030;-93
2022/11/05 08:22:41;;;;;;;2.65;1.70;;;;;;;13.62;70.72;93955.56;4980686;28;20080;-95
2022/11/05 08:25:07;;;;;;;2.78;1.73;;;;;;;13.38;71.55;93948.69;4980854;28;20066;-94
2022/11/05 08:27:32;;;;;;;7.55;2.03;;;;;;;13.60;67.59;93957.72;4980668;28;20037;-94
2022/11/05 08:29:58;;;;;;;2.75;1.42;;;;;;;13.21;67.13;93954.53;4965041;28;20031;-94
2022/11/05 08:32:23;;;;;;;2.97;1.70;;;;;;;13.54;65.94;93961.53;4965007;28;20111;-94
2022/11/05 08:34:48;;;;;;;3.40;1.60;;;;;;;13.58;67.32;93962.50;4964709;28;20036;-94
2022/11/05 08:37:14;;;;;;;3.42;1.48;;;;;;;14.11;64.24;93970.84;4980642;28;20026;-94
2022/11/05 08:39:39;;;;;;;2.58;1.50;;;;;;;14.24;62.17;93962.09;4980868;28;20034;-94
2022/11/05 08:42:05;;;;;;;3.88;1.77;;;;;;;14.62;62.24;93962.78;4964839;28;20030;-94
2022/11/05 08:44:30;;;;;;;8.70;2.40;;;;;;;14.00;63.08;93973.69;4981370;28;20130;-94
2022/11/05 08:46:56;;;;;;;4.82;2.00;;;;;;;13.99;61.38;93974.78;4998209;28;20097;-94
2022/11/05 08:49:31;;;;;;;3.58;1.70;;;;;;;13.51;62.72;93977.94;4997553;28;20037;-94
2022/11/05 08:51:57;;;;;;;4.70;1.80;;;;;;;13.99;63.25;93971.38;4964778;28;20026;-94
2022/11/05 08:54:22;;;;;;;4.07;1.40;;;;;;;14.29;60.94;93969.13;4998293;28;20045;-94
2022/11/05 08:56:48;;;;;;;3.42;1.70;;;;;;;14.06;62.17;93979.63;4997809;28;20031;-93
2022/11/05 08:59:13;;;;;;;2.95;1.67;;;;;;;13.77;60.20;93983.44;4964225;28;20078;-95
2022/11/05 09:01:38;;;;;;;2.85;1.60;;;;;;;13.60;62.00;93980.66;4997652;28;20022;-94
2022/11/05 09:04:04;;;;;;;3.38;1.50;;;;;;;14.42;61.31;93994.63;4981686;28;20026;-94
2022/11/05 09:06:29;;;;;;;6.43;1.63;;;;;;;14.57;61.91;93988.19;5001567;28;20026;-95
2022/11/05 09:08:55;;;;;;;5.03;1.50;;;;;;;14.84;58.68;93997.06;4984730;28;20026;-94
2022/11/05 09:11:20;;;;;;;2.92;1.30;;;;;;;15.06;56.06;94000.72;4984220;28;20091;-94
2022/11/05 09:13:46;;;;;;;2.42;1.00;;;;;;;14.78;56.13;94006.19;4983666;28;20029;-93
2022/11/05 09:16:25;;;;;;;2.20;1.23;;;;;;;15.92;55.52;94010.28;4983523;28;20434;-94
2022/11/05 09:18:50;;;;;;;1.40;0.90;;;;;;;15.69;57.68;94011.16;4983462;28;20402;-94
2022/11/05 09:21:17;;;;;;;1.90;0.93;;;;;;;15.99;55.96;94009.81;5000871;28;20026;-93
2022/11/05 09:23:46;;;;;;;4.10;1.30;;;;;;;15.99;57.92;94002.66;4964051;28;20121;-93
2022/11/05 09:26:12;;;;;;;1.75;1.10;;;;;;;15.84;53.15;94019.72;4963899;28;20037;-94
2022/11/05 09:28:38;;;;;;;1.48;1.10;;;;;;;15.86;54.58;94025.47;4963871;28;20139;-93
2022/11/05 09:31:08;;;;;;;3.72;1.13;;;;;;;15.75;52.65;94029.50;4963876;28;20022;-93
2022/11/05 09:33:36;;;;;;;1.58;0.82;;;;;;;15.75;55.81;94038.19;4964000;28;20073;-94
2022/11/05 09:36:02;;;;;;;0.85;0.60;;;;;;;15.46;49.31;94030.81;4963821;28;20027;-94
2022/11/05 09:38:28;;;;;;;0.57;0.47;;;;;;;15.66;47.20;94022.34;4964173;28;20030;-95
2022/11/05 09:40:55;;;;;;;2.63;0.68;;;;;;;15.85;46.14;94023.91;4947835;28;20061;-94
2022/11/05 09:43:25;;;;;;;1.35;0.45;;;;;;;15.42;45.05;94022.72;4963917;28;20129;-94
2022/11/05 09:45:52;;;;;;;1.13;0.50;;;;;;;15.87;45.50;94021.75;4964155;28;20077;-93
2022/11/05 09:48:20;;;;;;;1.73;0.68;;;;;;;15.48;46.77;94015.44;4964205;28;20029;-93
2022/11/05 09:50:45;;;;;;;2.85;0.70;;;;;;;15.59;44.97;94019.34;4964120;28;20113;-93
2022/11/05 09:53:17;;;;;;;2.58;0.35;;;;;;;15.71;46.40;94023.28;4963979;28;20066;-94
2022/11/05 09:55:45;;;;;;;1.95;0.50;;;;;;;15.72;44.59;94020.34;4963678;28;20027;-94
2022/11/05 09:58:38;;;;;;;0.68;0.30;;;;;;;15.30;50.07;94025.94;4963543;28;20026;-94
2022/11/05 10:01:08;;;;;;;1.77;0.63;;;;;;;15.65;51.98;94025.28;4947631;28;20031;-93
2022/11/05 10:03:42;;;;;;;1.88;0.60;;;;;;;16.03;45.54;94026.59;4963527;28;20031;-93
2022/11/05 10:06:08;;;;;;;0.98;0.50;;;;;;;16.21;46.10;94025.53;4947725;28;20467;-94
2022/11/05 10:08:41;;;;;;;0.77;0.40;;;;;;;16.04;46.88;94028.94;4963293;28;20030;-94
2022/11/05 10:11:15;;;;;;;4.97;0.43;;;;;;;16.49;46.37;94037.66;4963668;28;20019;-94
2022/11/05 10:13:55;;;;;;;3.65;0.70;;;;;;;16.34;46.30;94033.59;4963327;28;20037;-93
2022/11/05 10:16:33;;;;;;;1.58;0.52;;;;;;;15.79;45.57;94035.72;4947169;28;20037;-91
2022/11/05 10:19:13;;;;;;;4.05;0.50;;;;;;;15.50;47.75;94026.50;4962958;28;20354;-92
2022/11/05 10:21:40;;;;;;;0.93;0.50;;;;;;;15.74;49.96;94035.84;4963184;28;20422;-91
2022/11/05 10:24:26;;;;;;;0.47;0.40;;;;;;;15.91;45.29;94032.50;4962875;28;20436;-93
2022/11/05 10:26:53;;;;;;;0.77;0.40;;;;;;;15.69;49.31;94037.56;4962293;28;20043;-92
2022/11/05 10:29:28;;;;;;;0.50;0.20;;;;;;;15.48;45.24;94033.91;4962746;28;20086;-93
2022/11/05 10:31:55;;;;;;;0.63;0.20;;;;;;;15.48;48.12;94021.50;4946912;28;20082;-93
2022/11/05 10:34:24;;;;;;;1.10;0.43;;;;;;;15.93;49.14;94030.31;4962716;28;20030;-93
2022/11/05 10:36:49;;;;;;;1.67;0.70;;;;;;;15.47;49.13;94030.53;4962612;28;20054;-92
2022/11/05 10:39:17;;;;;;;1.13;0.40;;;;;;;15.70;47.83;94038.31;4962582;28;20109;-92
2022/11/05 10:41:58;;;;;;;3.30;0.43;;;;;;;15.59;46.90;94027.28;4962504;28;20027;-92
2022/11/05 10:44:49;;;;;;;1.92;0.28;;;;;;;15.89;44.48;94034.66;4979698;28;20034;-91
2022/11/05 10:47:33;;;;;;;1.77;0.50;;;;;;;15.45;47.06;94030.06;4942559;28;20122;-93
2022/11/05 10:50:01;;;;;;;1.15;0.30;;;;;;;15.67;47.09;94037.09;4979663;28;20140;-93
2022/11/05 10:53:08;;;;;;;0.40;0.30;;;;;;;15.79;46.41;94041.78;4962108;28;20030;-91
2022/11/05 10:55:36;;;;;;;3.25;0.28;;;;;;;15.40;44.67;94030.97;4946127;28;20125;-93
2022/11/05 10:58:13;;;;;;;1.17;0.35;;;;;;;15.92;45.22;94026.91;4946339;28;20023;-92
2022/11/05 11:00:39;;;;;;;0.95;0.30;;;;;;;16.28;45.51;94027.69;4945907;28;20027;-91
2022/11/05 11:03:35;;;;;;;4.13;0.50;;;;;;;15.86;47.19;94024.72;4946205;28;20348;-91
2022/11/05 11:06:23;;;;;;;1.88;0.30;;;;;;;16.03;45.95;94026.59;4963593;28;20117;-93
2022/11/05 11:08:50;;;;;;;0.43;0.20;;;;;;;16.08;42.95;94021.94;5001023;28;20030;-93
2022/11/05 11:11:30;;;;;;;2.10;0.20;;;;;;;15.89;43.56;94030.16;5001055;28;20427;-93
2022/11/05 11:13:55;;;;;;;1.98;0.57;;;;;;;15.87;43.23;94021.75;5018270;28;20384;-92
2022/11/05 11:16:23;;;;;;;0.52;0.10;;;;;;;15.93;42.04;94025.84;5018303;28;20113;-93
2022/11/05 11:18:59;;;;;;;0.47;0.20;;;;;;;15.88;41.30;94023.28;4979161;28;20495;-91
2022/11/05 11:21:25;;;;;;;1.10;0.30;;;;;;;15.64;42.13;94021.09;4981361;28;20072;-93
2022/11/05 11:24:08;;;;;;;0.93;0.30;;;;;;;16.02;43.98;94019.75;4965117;28;20038;-92
2022/11/05 11:26:38;;;;;;;0.30;0.20;;;;;;;15.90;41.48;94017.75;4975471;28;20065;-91
2022/11/05 11:29:24;;;;;;;0.10;0.10;;;;;;;16.03;44.54;94023.97;4961479;28;20375;-93
2022/11/05 11:31:54;;;;;;;1.30;0.30;;;;;;;15.55;40.79;94021.06;4961479;28;20034;-91
2022/11/05 11:34:30;;;;;;;2.60;0.20;;;;;;;15.81;43.54;94026.38;4945795;28;20027;-90
2022/11/05 11:37:20;;;;;;;1.27;0.50;;;;;;;15.97;41.69;94028.63;4961623;28;20034;-91
2022/11/05 11:39:52;;;;;;;0.77;0.20;;;;;;;16.10;41.13;94029.56;4961062;28;20090;-93
2022/11/05 11:42:25;;;;;;;0.20;0.20;;;;;;;16.03;43.45;94018.69;4961135;28;20347;-91
2022/11/05 11:44:50;;;;;;;0.47;0.33;;;;;;;15.67;41.38;94028.38;4945518;28;20030;-91
2022/11/05 11:47:17;;;;;;;0.40;0.22;;;;;;;15.58;43.45;94020.44;4979551;28;20030;-90
2022/11/05 11:49:58;;;;;;;0.32;0.20;;;;;;;15.71;40.51;94024.06;4964718;28;20328;-92
2022/11/05 11:52:24;;;;;;;0.17;0.15;;;;;;;15.65;40.05;94028.72;4964274;28;20030;-91
2022/11/05 11:54:50;;;;;;;1.10;0.30;;;;;;;15.74;38.68;94020.00;4980615;28;20462;-91
2022/11/05 11:57:27;;;;;;;1.65;0.30;;;;;;;15.99;41.40;94031.72;4980422;28;20030;-91
2022/11/05 11:59:54;;;;;;;0.60;0.20;;;;;;;16.11;39.71;94031.88;4980404;28;20022;-92
2022/11/05 12:02:43;;;;;;;0.20;0.10;;;;;;;16.21;39.67;94030.03;4964325;28;20329;-91
2022/11/05 12:05:39;;;;;;;0.75;0.20;;;;;;;16.21;38.78;94028.19;4997768;28;20038;-92
2022/11/05 12:08:15;;;;;;;0.38;0.20;;;;;;;16.21;41.98;94036.13;4965532;28;20348;-91
2022/11/05 12:10:40;;;;;;;0.57;0.30;;;;;;;16.73;40.49;94031.09;4980359;28;20125;-90
2022/11/05 12:13:18;;;;;;;0.73;0.40;;;;;;;15.74;40.18;94034.00;4997579;28;20080;-91
2022/11/05 12:16:02;;;;;;;3.38;0.30;;;;;;;16.14;40.38;94037.63;4997512;28;20420;-92
2022/11/05 12:18:37;;;;;;;0.32;0.30;;;;;;;15.64;39.25;94037.72;4964603;28;20117;-92
2022/11/05 12:21:14;;;;;;;0.75;0.40;;;;;;;16.08;40.02;94047.59;4978561;28;20030;-91
2022/11/05 12:23:57;;;;;;;0.43;0.40;;;;;;;15.46;38.24;94034.25;4980282;28;20038;-91
2022/11/05 12:27:01;;;;;;;1.95;0.40;;;;;;;15.87;38.05;94042.88;4989909;28;20038;-91
2022/11/05 12:29:29;;;;;;;1.90;0.60;;;;;;;15.79;39.85;94046.28;4978844;28;20431;-91